sensor_id;sensor_type;location;lat;lon;timestamp;temperature;humidity
1800;DHT22;919;48.274;12.292;2023-11-19T00:02:20;4.40;99.90
1800;DHT22;919;48.274;12.292;2023-11-19T00:04:47;4.50;99.90
1800;DHT22;919;48.274;12.292;2023-11-19T00:07:14;4.40;99.90
1800;DHT22;919;48.274;12.292;2023-11-19T00:09:41;4.40;99.90
1800;DHT22;919;48.274;12.292;2023-11-19T00:12:09;4.50;99.90
1800;DHT22;919;48.274;12.292;2023-11-19T00:14:36;4.50;99.90
1800;DHT22;919;48.274;12.292;2023-11-19T00:17:02;4.50;99.90
1800;DHT22;919;48.274;12.292;2023-11-19T00:19:31;4.50;99.90
1800;DHT22;919;48.274;12.292;2023-11-19T00:21:58;4.50;99.90
1800;DHT22;919;48.274;12.292;2023-11-19T00:24:28;4.50;99.90
1800;DHT22;919;48.274;12.292;2023-11-19T00:26:55;4.50;99.90
1800;DHT22;919;48.274;12.292;2023-11-19T00:29:21;4.50;99.90
1800;DHT22;919;48.274;12.292;2023-11-19T00:31:48;4.50;99.90
1800;DHT22;919;48.274;12.292;2023-11-19T00:34:15;4.50;99.90
1800;DHT22;919;48.274;12.292;2023-11-19T00:36:44;4.40;99.90
1800;DHT22;919;48.274;12.292;2023-11-19T00:39:10;4.40;99.90
1800;DHT22;919;48.274;12.292;2023-11-19T00:41:40;4.50;99.90
1800;DHT22;919;48.274;12.292;2023-11-19T00:44:07;4.50;99.90
1800;DHT22;919;48.274;12.292;2023-11-19T00:46:33;4.50;99.90
1800;DHT22;919;48.274;12.292;2023-11-19T00:49:00;4.40;99.90
1800;DHT22;919;48.274;12.292;2023-11-19T00:51:27;4.40;99.90
1800;DHT22;919;48.274;12.292;2023-11-19T00:53:55;4.40;99.90
1800;DHT22;919;48.274;12.292;2023-11-19T00:56:22;4.30;99.90
1800;DHT22;919;48.274;12.292;2023-11-19T00:58:48;4.40;99.90
1800;DHT22;919;48.274;12.292;2023-11-19T01:01:15;4.40;99.90
1800;DHT22;919;48.274;12.292;2023-11-19T01:03:42;4.40;99.90
1800;DHT22;919;48.274;12.292;2023-11-19T01:06:08;4.40;99.90
1800;DHT22;919;48.274;12.292;2023-11-19T01:08:35;4.50;99.90
1800;DHT22;919;48.274;12.292;2023-11-19T01:11:04;4.40;99.90
1800;DHT22;919;48.274;12.292;2023-11-19T01:13:30;4.40;99.90
1800;DHT22;919;48.274;12.292;2023-11-19T01:15:57;4.40;99.90
1800;DHT22;919;48.274;12.292;2023-11-19T01:18:24;4.40;99.90
1800;DHT22;919;48.274;12.292;2023-11-19T01:20:51;4.40;99.90
1800;DHT22;919;48.274;12.292;2023-11-19T01:23:17;4.40;99.90
1800;DHT22;919;48.274;12.292;2023-11-19T01:25:44;4.40;99.90
1800;DHT22;919;48.274;12.292;2023-11-19T01:28:12;4.40;99.90
1800;DHT22;919;48.274;12.292;2023-11-19T01:30:39;4.40;99.90
1800;DHT22;919;48.274;12.292;2023-11-19T01:33:06;4.40;99.90
1800;DHT22;919;48.274;12.292;2023-11-19T01:35:33;4.40;99.90
1800;DHT22;919;48.274;12.292;2023-11-19T01:38:00;4.40;99.90
1800;DHT22;919;48.274;12.292;2023-11-19T01:40:27;4.40;99.90
1800;DHT22;919;48.274;12.292;2023-11-19T01:42:53;4.50;99.90
1800;DHT22;919;48.274;12.292;2023-11-19T01:45:28;4.40;99.90
1800;DHT22;919;48.274;12.292;2023-11-19T01:47:56;4.40;99.90
1800;DHT22;919;48.274;12.292;2023-11-19T01:50:23;4.40;99.90
1800;DHT22;919;48.274;12.292;2023-11-19T01:52:50;4.40;99.90
1800;DHT22;919;48.274;12.292;2023-11-19T01:55:19;4.40;99.90
1800;DHT22;919;48.274;12.292;2023-11-19T01:57:47;4.50;99.90
1800;DHT22;919;48.274;12.292;2023-11-19T02:00:15;4.40;99.90
1800;DHT22;919;48.274;12.292;2023-11-19T02:02:44;4.40;99.90
1800;DHT22;919;48.274;12.292;2023-11-19T02:05:12;4.50;99.90
1800;DHT22;919;48.274;12.292;2023-11-19T02:07:40;4.40;99.90
1800;DHT22;919;48.274;12.292;2023-11-19T02:10:07;4.50;99.90
1800;DHT22;919;48.274;12.292;2023-11-19T02:12:38;4.50;99.90
1800;DHT22;919;48.274;12.292;2023-11-19T02:15:07;4.50;99.90
1800;DHT22;919;48.274;12.292;2023-11-19T02:17:34;4.50;99.90
1800;DHT22;919;48.274;12.292;2023-11-19T02:20:05;4.50;99.90
1800;DHT22;919;48.274;12.292;2023-11-19T02:22:35;4.50;99.90
1800;DHT22;919;48.274;12.292;2023-11-19T02:25:06;4.50;99.90
1800;DHT22;919;48.274;12.292;2023-11-19T02:27:46;4.50;99.90
1800;DHT22;919;48.274;12.292;2023-11-19T02:30:16;4.50;99.90
1800;DHT22;919;48.274;12.292;2023-11-19T02:32:43;4.40;99.90
1800;DHT22;919;48.274;12.292;2023-11-19T02:35:09;4.50;99.90
1800;DHT22;919;48.274;12.292;2023-11-19T02:37:37;4.50;99.90
1800;DHT22;919;48.274;12.292;2023-11-19T02:40:05;4.50;99.90
1800;DHT22;919;48.274;12.292;2023-11-19T02:42:34;4.60;99.90
1800;DHT22;919;48.274;12.292;2023-11-19T02:45:02;4.60;99.90
1800;DHT22;919;48.274;12.292;2023-11-19T02:47:32;4.60;99.90
1800;DHT22;919;48.274;12.292;2023-11-19T02:49:59;4.60;99.90
1800;DHT22;919;48.274;12.292;2023-11-19T02:52:26;4.60;99.90
1800;DHT22;919;48.274;12.292;2023-11-19T02:54:53;4.60;99.90
1800;DHT22;919;48.274;12.292;2023-11-19T02:57:21;4.60;99.90
1800;DHT22;919;48.274;12.292;2023-11-19T02:59:48;4.60;99.90
1800;DHT22;919;48.274;12.292;2023-11-19T03:02:16;4.60;99.90
1800;DHT22;919;48.274;12.292;2023-11-19T03:04:43;4.60;99.90
1800;DHT22;919;48.274;12.292;2023-11-19T03:07:11;4.60;99.90
1800;DHT22;919;48.274;12.292;2023-11-19T03:09:39;4.60;99.90
1800;DHT22;919;48.274;12.292;2023-11-19T03:12:07;4.60;99.90
1800;DHT22;919;48.274;12.292;2023-11-19T03:14:34;4.60;99.90
1800;DHT22;919;48.274;12.292;2023-11-19T03:17:00;4.60;99.90
1800;DHT22;919;48.274;12.292;2023-11-19T03:19:28;4.60;99.90
1800;DHT22;919;48.274;12.292;2023-11-19T03:21:55;4.60;99.90
1800;DHT22;919;48.274;12.292;2023-11-19T03:24:22;4.60;99.90
1800;DHT22;919;48.274;12.292;2023-11-19T03:26:50;4.60;99.90
1800;DHT22;919;48.274;12.292;2023-11-19T03:29:17;4.60;99.90
1800;DHT22;919;48.274;12.292;2023-11-19T03:31:43;4.60;99.90
1800;DHT22;919;48.274;12.292;2023-11-19T03:34:11;4.60;99.90
1800;DHT22;919;48.274;12.292;2023-11-19T03:36:39;4.60;99.90
1800;DHT22;919;48.274;12.292;2023-11-19T03:39:06;4.70;99.90
1800;DHT22;919;48.274;12.292;2023-11-19T03:41:33;4.70;99.90
1800;DHT22;919;48.274;12.292;2023-11-19T03:44:00;4.70;99.90
1800;DHT22;919;48.274;12.292;2023-11-19T03:46:26;4.70;99.90
1800;DHT22;919;48.274;12.292;2023-11-19T03:48:55;4.70;99.90
1800;DHT22;919;48.274;12.292;2023-11-19T03:51:22;4.80;99.90
1800;DHT22;919;48.274;12.292;2023-11-19T03:53:50;4.80;99.90
1800;DHT22;919;48.274;12.292;2023-11-19T03:56:16;4.80;99.90
1800;DHT22;919;48.274;12.292;2023-11-19T03:58:43;4.80;99.90
1800;DHT22;919;48.274;12.292;2023-11-19T04:01:11;4.80;99.90
1800;DHT22;919;48.274;12.292;2023-11-19T04:03:39;4.80;99.90
1800;DHT22;919;48.274;12.292;2023-11-19T04:06:06;4.80;99.90
1800;DHT22;919;48.274;12.292;2023-11-19T04:08:33;4.90;99.90
1800;DHT22;919;48.274;12.292;2023-11-19T04:11:02;4.90;99.90
1800;DHT22;919;48.274;12.292;2023-11-19T04:13:29;4.90;99.90
1800;DHT22;919;48.274;12.292;2023-11-19T04:15:56;5.00;99.90
1800;DHT22;919;48.274;12.292;2023-11-19T04:18:22;5.00;99.90
1800;DHT22;919;48.274;12.292;2023-11-19T04:20:49;5.00;99.90
1800;DHT22;919;48.274;12.292;2023-11-19T04:23:16;5.00;99.90
1800;DHT22;919;48.274;12.292;2023-11-19T04:25:43;4.90;99.90
1800;DHT22;919;48.274;12.292;2023-11-19T04:28:11;4.90;99.90
1800;DHT22;919;48.274;12.292;2023-11-19T04:30:37;4.90;99.90
1800;DHT22;919;48.274;12.292;2023-11-19T04:33:04;4.90;99.90
1800;DHT22;919;48.274;12.292;2023-11-19T04:35:31;4.90;99.90
1800;DHT22;919;48.274;12.292;2023-11-19T04:37:58;4.90;99.90
1800;DHT22;919;48.274;12.292;2023-11-19T04:40:24;4.90;99.90
1800;DHT22;919;48.274;12.292;2023-11-19T04:42:51;4.90;99.90
1800;DHT22;919;48.274;12.292;2023-11-19T04:45:19;4.90;99.90
1800;DHT22;919;48.274;12.292;2023-11-19T04:47:46;4.90;99.90
1800;DHT22;919;48.274;12.292;2023-11-19T04:50:13;4.90;99.90
1800;DHT22;919;48.274;12.292;2023-11-19T04:52:39;5.00;99.90
1800;DHT22;919;48.274;12.292;2023-11-19T04:55:08;5.00;99.90
1800;DHT22;919;48.274;12.292;2023-11-19T04:57:38;5.00;99.90
1800;DHT22;919;48.274;12.292;2023-11-19T05:00:05;5.00;99.90
1800;DHT22;919;48.274;12.292;2023-11-19T05:02:34;5.00;99.90
1800;DHT22;919;48.274;12.292;2023-11-19T05:05:00;5.00;99.90
1800;DHT22;919;48.274;12.292;2023-11-19T05:07:28;5.00;99.90
1800;DHT22;919;48.274;12.292;2023-11-19T05:09:54;5.00;99.90
1800;DHT22;919;48.274;12.292;2023-11-19T05:12:21;5.00;99.90
1800;DHT22;919;48.274;12.292;2023-11-19T05:14:48;5.00;99.90
1800;DHT22;919;48.274;12.292;2023-11-19T05:17:16;5.10;99.90
1800;DHT22;919;48.274;12.292;2023-11-19T05:19:45;5.10;99.90
1800;DHT22;919;48.274;12.292;2023-11-19T05:22:13;5.10;99.90
1800;DHT22;919;48.274;12.292;2023-11-19T05:24:40;5.10;99.90
1800;DHT22;919;48.274;12.292;2023-11-19T05:27:07;5.10;99.90
1800;DHT22;919;48.274;12.292;2023-11-19T05:29:34;5.20;99.90
1800;DHT22;919;48.274;12.292;2023-11-19T05:32:01;5.20;99.90
1800;DHT22;919;48.274;12.292;2023-11-19T05:34:27;5.20;99.90
1800;DHT22;919;48.274;12.292;2023-11-19T05:36:56;5.30;99.90
1800;DHT22;919;48.274;12.292;2023-11-19T05:39:23;5.40;99.90
1800;DHT22;919;48.274;12.292;2023-11-19T05:41:50;5.30;99.90
1800;DHT22;919;48.274;12.292;2023-11-19T05:44:17;5.30;99.90
1800;DHT22;919;48.274;12.292;2023-11-19T05:46:44;5.30;99.90
1800;DHT22;919;48.274;12.292;2023-11-19T05:49:11;5.40;99.90
1800;DHT22;919;48.274;12.292;2023-11-19T05:51:38;5.40;99.90
1800;DHT22;919;48.274;12.292;2023-11-19T05:54:07;5.50;99.90
1800;DHT22;919;48.274;12.292;2023-11-19T05:56:35;5.40;99.90
1800;DHT22;919;48.274;12.292;2023-11-19T05:59:02;5.40;99.90
1800;DHT22;919;48.274;12.292;2023-11-19T06:01:32;5.40;99.90
1800;DHT22;919;48.274;12.292;2023-11-19T06:03:59;5.40;99.90
1800;DHT22;919;48.274;12.292;2023-11-19T06:06:26;5.40;99.90
1800;DHT22;919;48.274;12.292;2023-11-19T06:08:53;5.40;99.90
1800;DHT22;919;48.274;12.292;2023-11-19T06:11:21;5.40;99.90
1800;DHT22;919;48.274;12.292;2023-11-19T06:13:48;5.40;99.90
1800;DHT22;919;48.274;12.292;2023-11-19T06:16:15;5.40;99.90
1800;DHT22;919;48.274;12.292;2023-11-19T06:18:42;5.40;99.90
1800;DHT22;919;48.274;12.292;2023-11-19T06:21:09;5.40;99.90
1800;DHT22;919;48.274;12.292;2023-11-19T06:23:36;5.30;99.90
1800;DHT22;919;48.274;12.292;2023-11-19T06:26:03;5.30;99.90
1800;DHT22;919;48.274;12.292;2023-11-19T06:28:31;5.40;99.90
1800;DHT22;919;48.274;12.292;2023-11-19T06:30:58;5.40;99.90
1800;DHT22;919;48.274;12.292;2023-11-19T06:33:25;5.40;99.90
1800;DHT22;919;48.274;12.292;2023-11-19T06:35:52;5.40;99.90
1800;DHT22;919;48.274;12.292;2023-11-19T06:38:20;5.40;99.90
1800;DHT22;919;48.274;12.292;2023-11-19T06:40:46;5.50;99.90
1800;DHT22;919;48.274;12.292;2023-11-19T06:43:13;5.50;99.90
1800;DHT22;919;48.274;12.292;2023-11-19T06:45:42;5.50;99.90
1800;DHT22;919;48.274;12.292;2023-11-19T06:48:08;5.50;99.90
1800;DHT22;919;48.274;12.292;2023-11-19T06:50:36;5.60;99.90
1800;DHT22;919;48.274;12.292;2023-11-19T06:53:02;5.60;99.90
1800;DHT22;919;48.274;12.292;2023-11-19T06:55:30;5.60;99.90
1800;DHT22;919;48.274;12.292;2023-11-19T06:57:59;5.70;99.90
1800;DHT22;919;48.274;12.292;2023-11-19T07:00:26;5.70;99.90
1800;DHT22;919;48.274;12.292;2023-11-19T07:02:54;5.80;99.90
1800;DHT22;919;48.274;12.292;2023-11-19T07:05:20;5.80;99.90
1800;DHT22;919;48.274;12.292;2023-11-19T07:07:48;5.90;99.90
1800;DHT22;919;48.274;12.292;2023-11-19T07:10:15;5.90;99.90
1800;DHT22;919;48.274;12.292;2023-11-19T07:12:42;6.00;99.90
1800;DHT22;919;48.274;12.292;2023-11-19T07:15:10;6.00;99.90
1800;DHT22;919;48.274;12.292;2023-11-19T07:17:38;6.00;99.90
1800;DHT22;919;48.274;12.292;2023-11-19T07:20:07;6.00;99.90
1800;DHT22;919;48.274;12.292;2023-11-19T07:22:34;6.10;99.90
1800;DHT22;919;48.274;12.292;2023-11-19T07:25:04;6.10;99.90
1800;DHT22;919;48.274;12.292;2023-11-19T07:27:31;6.10;99.90
1800;DHT22;919;48.274;12.292;2023-11-19T07:29:58;6.20;99.90
1800;DHT22;919;48.274;12.292;2023-11-19T07:32:24;6.20;99.90
1800;DHT22;919;48.274;12.292;2023-11-19T07:34:51;6.20;99.90
1800;DHT22;919;48.274;12.292;2023-11-19T07:37:19;6.20;99.90
1800;DHT22;919;48.274;12.292;2023-11-19T07:39:46;6.20;99.90
1800;DHT22;919;48.274;12.292;2023-11-19T07:42:13;6.30;99.90
1800;DHT22;919;48.274;12.292;2023-11-19T07:44:40;6.30;99.90
1800;DHT22;919;48.274;12.292;2023-11-19T07:47:07;6.30;99.90
1800;DHT22;919;48.274;12.292;2023-11-19T07:49:33;6.40;99.90
1800;DHT22;919;48.274;12.292;2023-11-19T07:52:00;6.40;99.90
1800;DHT22;919;48.274;12.292;2023-11-19T07:54:29;6.50;99.90
1800;DHT22;919;48.274;12.292;2023-11-19T07:56:56;6.50;99.90
1800;DHT22;919;48.274;12.292;2023-11-19T07:59:23;6.60;99.90
1800;DHT22;919;48.274;12.292;2023-11-19T08:01:49;6.60;99.90
1800;DHT22;919;48.274;12.292;2023-11-19T08:04:16;6.70;99.90
1800;DHT22;919;48.274;12.292;2023-11-19T08:06:43;6.80;99.90
1800;DHT22;919;48.274;12.292;2023-11-19T08:09:11;6.90;99.90
1800;DHT22;919;48.274;12.292;2023-11-19T08:11:40;6.90;99.90
1800;DHT22;919;48.274;12.292;2023-11-19T08:14:07;7.00;99.90
1800;DHT22;919;48.274;12.292;2023-11-19T08:16:34;7.10;99.90
1800;DHT22;919;48.274;12.292;2023-11-19T08:19:01;7.30;99.90
1800;DHT22;919;48.274;12.292;2023-11-19T08:21:28;7.40;99.90
1800;DHT22;919;48.274;12.292;2023-11-19T08:23:55;7.50;99.90
1800;DHT22;919;48.274;12.292;2023-11-19T08:26:22;8.00;99.90
1800;DHT22;919;48.274;12.292;2023-11-19T08:28:50;8.40;99.90
1800;DHT22;919;48.274;12.292;2023-11-19T08:31:17;8.90;99.90
1800;DHT22;919;48.274;12.292;2023-11-19T08:33:44;9.20;99.90
1800;DHT22;919;48.274;12.292;2023-11-19T08:36:15;9.50;99.90
1800;DHT22;919;48.274;12.292;2023-11-19T08:38:42;9.70;99.90
1800;DHT22;919;48.274;12.292;2023-11-19T08:41:09;9.90;99.90
1800;DHT22;919;48.274;12.292;2023-11-19T08:43:35;10.10;99.90
1800;DHT22;919;48.274;12.292;2023-11-19T08:46:04;10.20;99.90
1800;DHT22;919;48.274;12.292;2023-11-19T08:48:35;10.40;99.90
1800;DHT22;919;48.274;12.292;2023-11-19T08:51:02;10.40;99.90
1800;DHT22;919;48.274;12.292;2023-11-19T08:53:30;10.60;99.90
1800;DHT22;919;48.274;12.292;2023-11-19T08:55:56;10.80;99.90
1800;DHT22;919;48.274;12.292;2023-11-19T08:58:23;10.80;99.90
1800;DHT22;919;48.274;12.292;2023-11-19T09:00:50;10.90;99.90
1800;DHT22;919;48.274;12.292;2023-11-19T09:03:18;11.00;99.90
1800;DHT22;919;48.274;12.292;2023-11-19T09:05:45;11.10;99.90
1800;DHT22;919;48.274;12.292;2023-11-19T09:08:12;11.10;99.90
1800;DHT22;919;48.274;12.292;2023-11-19T09:10:39;11.30;99.90
1800;DHT22;919;48.274;12.292;2023-11-19T09:13:05;11.30;99.90
1800;DHT22;919;48.274;12.292;2023-11-19T09:15:33;11.50;99.90
1800;DHT22;919;48.274;12.292;2023-11-19T09:18:00;11.60;99.90
1800;DHT22;919;48.274;12.292;2023-11-19T09:20:28;11.90;99.90
1800;DHT22;919;48.274;12.292;2023-11-19T09:22:58;12.20;99.90
1800;DHT22;919;48.274;12.292;2023-11-19T09:25:24;12.40;99.90
1800;DHT22;919;48.274;12.292;2023-11-19T09:27:51;12.60;99.90
1800;DHT22;919;48.274;12.292;2023-11-19T09:30:18;12.60;99.90
1800;DHT22;919;48.274;12.292;2023-11-19T09:32:44;12.60;99.90
1800;DHT22;919;48.274;12.292;2023-11-19T09:35:11;12.60;99.90
1800;DHT22;919;48.274;12.292;2023-11-19T09:37:42;12.50;99.90
1800;DHT22;919;48.274;12.292;2023-11-19T09:40:10;12.40;99.90
1800;DHT22;919;48.274;12.292;2023-11-19T09:42:43;12.10;99.90
1800;DHT22;919;48.274;12.292;2023-11-19T09:45:13;12.00;99.90
1800;DHT22;919;48.274;12.292;2023-11-19T09:47:43;11.90;99.90
1800;DHT22;919;48.274;12.292;2023-11-19T09:50:11;11.90;99.90
1800;DHT22;919;48.274;12.292;2023-11-19T09:52:40;12.00;99.90
1800;DHT22;919;48.274;12.292;2023-11-19T09:55:08;12.10;99.90
1800;DHT22;919;48.274;12.292;2023-11-19T09:57:35;12.20;99.90
1800;DHT22;919;48.274;12.292;2023-11-19T10:00:05;12.30;99.90
1800;DHT22;919;48.274;12.292;2023-11-19T10:02:34;12.30;99.90
1800;DHT22;919;48.274;12.292;2023-11-19T10:05:04;12.40;99.90
1800;DHT22;919;48.274;12.292;2023-11-19T10:07:32;12.50;99.90
1800;DHT22;919;48.274;12.292;2023-11-19T10:10:00;12.50;99.90
1800;DHT22;919;48.274;12.292;2023-11-19T10:12:29;12.70;99.90
1800;DHT22;919;48.274;12.292;2023-11-19T10:14:57;12.80;99.90
1800;DHT22;919;48.274;12.292;2023-11-19T10:17:27;12.90;99.90
1800;DHT22;919;48.274;12.292;2023-11-19T10:19:54;12.90;99.90
1800;DHT22;919;48.274;12.292;2023-11-19T10:22:22;12.80;99.90
1800;DHT22;919;48.274;12.292;2023-11-19T10:24:49;12.60;99.90
1800;DHT22;919;48.274;12.292;2023-11-19T10:27:18;12.70;99.90
1800;DHT22;919;48.274;12.292;2023-11-19T10:29:45;12.80;99.90
1800;DHT22;919;48.274;12.292;2023-11-19T10:32:14;12.70;99.90
1800;DHT22;919;48.274;12.292;2023-11-19T10:34:41;12.70;99.90
1800;DHT22;919;48.274;12.292;2023-11-19T10:37:08;12.50;99.90
1800;DHT22;919;48.274;12.292;2023-11-19T10:39:53;12.50;99.90
1800;DHT22;919;48.274;12.292;2023-11-19T10:42:22;12.40;99.90
1800;DHT22;919;48.274;12.292;2023-11-19T10:44:49;12.40;99.90
1800;DHT22;919;48.274;12.292;2023-11-19T10:47:15;12.40;99.90
1800;DHT22;919;48.274;12.292;2023-11-19T10:49:45;12.40;99.90
1800;DHT22;919;48.274;12.292;2023-11-19T10:52:16;12.50;99.90
1800;DHT22;919;48.274;12.292;2023-11-19T10:54:44;12.70;99.90
1800;DHT22;919;48.274;12.292;2023-11-19T10:57:20;12.70;99.90
1800;DHT22;919;48.274;12.292;2023-11-19T10:59:49;12.80;99.90
1800;DHT22;919;48.274;12.292;2023-11-19T11:02:20;12.90;99.90
1800;DHT22;919;48.274;12.292;2023-11-19T11:04:50;13.10;99.90
1800;DHT22;919;48.274;12.292;2023-11-19T11:07:19;13.20;99.90
1800;DHT22;919;48.274;12.292;2023-11-19T11:09:47;13.30;99.90
1800;DHT22;919;48.274;12.292;2023-11-19T11:12:15;13.30;99.90
1800;DHT22;919;48.274;12.292;2023-11-19T11:14:44;13.50;99.90
1800;DHT22;919;48.274;12.292;2023-11-19T11:17:17;13.50;99.90
1800;DHT22;919;48.274;12.292;2023-11-19T11:19:44;13.40;99.90
1800;DHT22;919;48.274;12.292;2023-11-19T11:22:12;13.30;99.90
1800;DHT22;919;48.274;12.292;2023-11-19T11:25:11;13.20;99.90
1800;DHT22;919;48.274;12.292;2023-11-19T11:28:08;13.20;99.90
1800;DHT22;919;48.274;12.292;2023-11-19T11:30:49;13.20;99.90
1800;DHT22;919;48.274;12.292;2023-11-19T11:33:34;13.10;99.90
1800;DHT22;919;48.274;12.292;2023-11-19T11:36:10;13.20;99.90
1800;DHT22;919;48.274;12.292;2023-11-19T11:38:40;13.30;99.90
1800;DHT22;919;48.274;12.292;2023-11-19T11:41:18;13.40;99.90
1800;DHT22;919;48.274;12.292;2023-11-19T11:43:47;13.40;99.90
1800;DHT22;919;48.274;12.292;2023-11-19T11:49:29;13.20;99.90
1800;DHT22;919;48.274;12.292;2023-11-19T11:52:03;13.20;99.90
1800;DHT22;919;48.274;12.292;2023-11-19T11:54:31;13.10;99.90
1800;DHT22;919;48.274;12.292;2023-11-19T11:57:08;13.10;99.90
1800;DHT22;919;48.274;12.292;2023-11-19T11:59:53;13.10;99.90
1800;DHT22;919;48.274;12.292;2023-11-19T12:02:21;13.10;99.90
1800;DHT22;919;48.274;12.292;2023-11-19T12:04:51;13.10;99.90
1800;DHT22;919;48.274;12.292;2023-11-19T12:07:20;13.20;99.90
1800;DHT22;919;48.274;12.292;2023-11-19T12:09:48;13.20;99.90
1800;DHT22;919;48.274;12.292;2023-11-19T12:12:22;13.40;99.90
1800;DHT22;919;48.274;12.292;2023-11-19T12:15:05;13.70;99.90
1800;DHT22;919;48.274;12.292;2023-11-19T12:17:37;13.80;99.90
1800;DHT22;919;48.274;12.292;2023-11-19T12:20:07;14.10;99.90
1800;DHT22;919;48.274;12.292;2023-11-19T12:22:35;14.10;99.90
1800;DHT22;919;48.274;12.292;2023-11-19T12:25:05;14.20;99.90
1800;DHT22;919;48.274;12.292;2023-11-19T12:27:32;14.00;99.90
1800;DHT22;919;48.274;12.292;2023-11-19T12:30:02;13.90;99.90
1800;DHT22;919;48.274;12.292;2023-11-19T12:32:37;13.80;99.90
1800;DHT22;919;48.274;12.292;2023-11-19T12:35:07;13.80;99.90
1800;DHT22;919;48.274;12.292;2023-11-19T12:37:39;13.60;99.90
1800;DHT22;919;48.274;12.292;2023-11-19T12:40:12;13.60;99.90
1800;DHT22;919;48.274;12.292;2023-11-19T12:42:39;13.50;99.90
1800;DHT22;919;48.274;12.292;2023-11-19T12:45:07;13.30;99.90
1800;DHT22;919;48.274;12.292;2023-11-19T12:47:34;13.30;99.90
1800;DHT22;919;48.274;12.292;2023-11-19T12:50:01;13.20;99.90
1800;DHT22;919;48.274;12.292;2023-11-19T12:52:30;13.10;99.90
1800;DHT22;919;48.274;12.292;2023-11-19T12:54:58;13.10;99.90
1800;DHT22;919;48.274;12.292;2023-11-19T12:57:36;13.20;99.90
1800;DHT22;919;48.274;12.292;2023-11-19T13:00:04;13.20;99.90
1800;DHT22;919;48.274;12.292;2023-11-19T13:02:47;13.40;99.90
1800;DHT22;919;48.274;12.292;2023-11-19T13:05:25;13.70;99.90
1800;DHT22;919;48.274;12.292;2023-11-19T13:08:00;13.90;99.90
1800;DHT22;919;48.274;12.292;2023-11-19T13:10:27;14.00;99.90
1800;DHT22;919;48.274;12.292;2023-11-19T13:13:02;14.20;99.90
1800;DHT22;919;48.274;12.292;2023-11-19T13:15:29;14.20;99.90
1800;DHT22;919;48.274;12.292;2023-11-19T13:17:56;14.40;99.90
1800;DHT22;919;48.274;12.292;2023-11-19T13:20:22;14.20;99.90
1800;DHT22;919;48.274;12.292;2023-11-19T13:22:56;14.00;99.90
1800;DHT22;919;48.274;12.292;2023-11-19T13:25:24;13.70;99.90
1800;DHT22;919;48.274;12.292;2023-11-19T13:27:51;13.60;99.90
1800;DHT22;919;48.274;12.292;2023-11-19T13:30:18;13.60;99.90
1800;DHT22;919;48.274;12.292;2023-11-19T13:32:45;13.60;99.90
1800;DHT22;919;48.274;12.292;2023-11-19T13:35:12;13.50;99.90
1800;DHT22;919;48.274;12.292;2023-11-19T13:37:39;13.50;99.90
1800;DHT22;919;48.274;12.292;2023-11-19T13:40:07;13.40;99.90
1800;DHT22;919;48.274;12.292;2023-11-19T13:42:36;13.40;99.90
1800;DHT22;919;48.274;12.292;2023-11-19T13:45:07;13.40;99.90
1800;DHT22;919;48.274;12.292;2023-11-19T13:47:36;13.50;99.90
1800;DHT22;919;48.274;12.292;2023-11-19T13:50:03;13.50;99.90
1800;DHT22;919;48.274;12.292;2023-11-19T13:52:31;13.50;99.90
1800;DHT22;919;48.274;12.292;2023-11-19T13:54:58;13.50;99.90
1800;DHT22;919;48.274;12.292;2023-11-19T13:57:25;13.50;99.90
1800;DHT22;919;48.274;12.292;2023-11-19T13:59:53;13.50;99.90
1800;DHT22;919;48.274;12.292;2023-11-19T14:02:20;13.50;99.90
1800;DHT22;919;48.274;12.292;2023-11-19T14:04:46;13.50;99.90
1800;DHT22;919;48.274;12.292;2023-11-19T14:07:13;13.70;99.90
1800;DHT22;919;48.274;12.292;2023-11-19T14:09:41;14.00;99.90
1800;DHT22;919;48.274;12.292;2023-11-19T14:12:08;14.20;99.90
1800;DHT22;919;48.274;12.292;2023-11-19T14:14:38;14.20;99.90
1800;DHT22;919;48.274;12.292;2023-11-19T14:17:06;14.10;99.90
1800;DHT22;919;48.274;12.292;2023-11-19T14:19:34;13.90;99.90
1800;DHT22;919;48.274;12.292;2023-11-19T14:22:00;13.80;99.90
1800;DHT22;919;48.274;12.292;2023-11-19T14:24:27;13.70;99.90
1800;DHT22;919;48.274;12.292;2023-11-19T14:26:54;13.60;99.90
1800;DHT22;919;48.274;12.292;2023-11-19T14:29:23;13.60;99.90
1800;DHT22;919;48.274;12.292;2023-11-19T14:31:51;13.60;99.90
1800;DHT22;919;48.274;12.292;2023-11-19T14:34:19;13.50;99.90
1800;DHT22;919;48.274;12.292;2023-11-19T14:36:46;13.40;99.90
1800;DHT22;919;48.274;12.292;2023-11-19T14:39:13;13.40;99.90
1800;DHT22;919;48.274;12.292;2023-11-19T14:41:40;13.20;99.90
1800;DHT22;919;48.274;12.292;2023-11-19T14:44:06;13.20;99.90
1800;DHT22;919;48.274;12.292;2023-11-19T14:46:35;13.10;99.90
1800;DHT22;919;48.274;12.292;2023-11-19T14:49:02;13.10;99.90
1800;DHT22;919;48.274;12.292;2023-11-19T14:51:30;13.00;99.90
1800;DHT22;919;48.274;12.292;2023-11-19T14:53:57;13.00;99.90
1800;DHT22;919;48.274;12.292;2023-11-19T14:56:24;13.00;99.90
1800;DHT22;919;48.274;12.292;2023-11-19T14:58:50;13.00;99.90
1800;DHT22;919;48.274;12.292;2023-11-19T15:01:17;12.90;99.90
1800;DHT22;919;48.274;12.292;2023-11-19T15:03:44;12.90;99.90
1800;DHT22;919;48.274;12.292;2023-11-19T15:06:11;12.90;99.90
1800;DHT22;919;48.274;12.292;2023-11-19T15:08:39;12.80;99.90
1800;DHT22;919;48.274;12.292;2023-11-19T15:11:07;12.80;99.90
1800;DHT22;919;48.274;12.292;2023-11-19T15:13:34;12.80;99.90
1800;DHT22;919;48.274;12.292;2023-11-19T15:16:03;12.70;99.90
1800;DHT22;919;48.274;12.292;2023-11-19T15:18:31;12.70;99.90
1800;DHT22;919;48.274;12.292;2023-11-19T15:20:58;12.70;99.90
1800;DHT22;919;48.274;12.292;2023-11-19T15:23:25;12.70;99.90
1800;DHT22;919;48.274;12.292;2023-11-19T15:25:56;12.70;99.90
1800;DHT22;919;48.274;12.292;2023-11-19T15:28:23;12.60;99.90
1800;DHT22;919;48.274;12.292;2023-11-19T15:30:49;12.50;99.90
1800;DHT22;919;48.274;12.292;2023-11-19T15:33:16;12.40;99.90
1800;DHT22;919;48.274;12.292;2023-11-19T15:35:43;12.40;99.90
1800;DHT22;919;48.274;12.292;2023-11-19T15:38:10;12.30;99.90
1800;DHT22;919;48.274;12.292;2023-11-19T15:40:37;12.20;99.90
1800;DHT22;919;48.274;12.292;2023-11-19T15:43:05;12.00;99.90
1800;DHT22;919;48.274;12.292;2023-11-19T15:45:32;12.00;99.90
1800;DHT22;919;48.274;12.292;2023-11-19T15:48:03;12.00;99.90
1800;DHT22;919;48.274;12.292;2023-11-19T15:50:29;12.00;99.90
1800;DHT22;919;48.274;12.292;2023-11-19T15:52:56;12.00;99.90
1800;DHT22;919;48.274;12.292;2023-11-19T15:55:24;12.00;99.90
1800;DHT22;919;48.274;12.292;2023-11-19T15:57:51;11.90;99.90
1800;DHT22;919;48.274;12.292;2023-11-19T16:00:19;12.00;99.90
1800;DHT22;919;48.274;12.292;2023-11-19T16:02:47;12.00;99.90
1800;DHT22;919;48.274;12.292;2023-11-19T16:05:13;12.10;99.90
1800;DHT22;919;48.274;12.292;2023-11-19T16:07:40;12.10;99.90
1800;DHT22;919;48.274;12.292;2023-11-19T16:10:08;12.00;99.90
1800;DHT22;919;48.274;12.292;2023-11-19T16:12:37;11.90;99.90
1800;DHT22;919;48.274;12.292;2023-11-19T16:15:04;11.80;99.90
1800;DHT22;919;48.274;12.292;2023-11-19T16:17:32;11.80;99.90
1800;DHT22;919;48.274;12.292;2023-11-19T16:20:01;11.90;99.90